Time;durP1;ratioP1;P1;durP2;ratioP2;P2;SDS_P1;SDS_P2;PMS_P1;PMS_P2;Temp;Humidity;BMP_temperature;BMP_pressure;BME280_temperature;BME280_humidity;BME280_pressure;Samples;Min_cycle;Max_cycle;Signal;HPM_P1;HPM_P2
2021/11/06 00:00:08;;;;;;;1034.18;965.35;;;;;;;8.12;71.87;101946.06;686743;28;69378;-66
2021/11/06 00:00:33;;;;;;;1038.43;969.42;;;;;;;8.13;72.10;101952.28;686607;28;138025;-66
2021/11/06 00:00:54;;;;;;;1036.53;967.53;;;;;;;8.12;72.04;101948.75;686316;28;43942;-66
2021/11/06 00:01:17;;;;;;;1044.93;975.72;;;;;;;8.13;72.14;101949.59;687367;28;22413;-66
2021/11/06 00:01:38;;;;;;;1053.32;983.72;;;;;;;8.12;72.14;101945.22;686167;28;69522;-66
2021/11/06 00:01:59;;;;;;;1048.13;978.75;;;;;;;8.11;71.90;101943.50;688378;28;21542;-66
2021/11/06 00:02:20;;;;;;;1028.22;959.72;;;;;;;8.10;71.96;101945.38;687883;28;23500;-66
2021/11/06 00:02:41;;;;;;;1017.80;949.72;;;;;;;8.09;71.97;101943.66;687971;28;22567;-67
2021/11/06 00:03:03;;;;;;;1015.25;947.33;;;;;;;8.09;71.95;101943.66;688342;28;21530;-67
2021/11/06 00:03:25;;;;;;;1020.50;952.38;;;;;;;8.10;72.05;101947.19;687392;28;45230;-66
2021/11/06 00:03:46;;;;;;;1011.10;943.38;;;;;;;8.09;72.20;101940.94;687899;28;23591;-66
2021/11/06 00:04:07;;;;;;;1008.03;940.28;;;;;;;8.09;72.21;101943.66;687023;28;44146;-66
2021/11/06 00:04:28;;;;;;;1007.88;940.22;;;;;;;8.10;72.24;101949.88;688875;28;1497;-69
2021/11/06 00:04:50;;;;;;;1015.13;947.22;;;;;;;8.07;72.30;101942.94;688286;28;21516;-66
2021/11/06 00:05:12;;;;;;;1003.42;935.80;;;;;;;8.07;72.42;101945.63;687560;28;46273;-66
2021/11/06 00:05:33;;;;;;;974.50;907.88;;;;;;;8.06;72.32;101943.91;688251;28;45260;-67
2021/11/06 00:05:55;;;;;;;1005.08;937.47;;;;;;;8.07;72.22;101940.25;688539;28;21362;-67
2021/11/06 00:06:16;;;;;;;1020.83;952.65;;;;;;;8.07;72.22;101945.63;687988;28;44254;-66
2021/11/06 00:06:37;;;;;;;1041.13;972.10;;;;;;;8.08;72.38;101949.16;689656;28;21521;-66
2021/11/06 00:06:58;;;;;;;1001.40;933.92;;;;;;;8.08;72.27;101950.00;689664;28;21530;-67
2021/11/06 00:07:21;;;;;;;1001.67;934.17;;;;;;;8.06;72.36;101943.06;688499;28;47629;-67
2021/11/06 00:07:42;;;;;;;1030.28;961.47;;;;;;;8.06;72.08;101946.59;687733;28;43350;-68
2021/11/06 00:08:03;;;;;;;1044.35;975.15;;;;;;;8.04;72.53;101945.88;689220;28;22197;-68
2021/11/06 00:08:25;;;;;;;1052.20;982.90;;;;;;;8.05;72.43;101947.56;688010;28;45336;-67
2021/11/06 00:08:47;;;;;;;1051.05;981.80;;;;;;;8.06;72.41;101945.75;688503;28;44367;-67
2021/11/06 00:09:08;;;;;;;1035.15;966.55;;;;;;;8.04;72.36;101950.38;689076;28;23462;-67
2021/11/06 00:09:29;;;;;;;1030.40;961.83;;;;;;;8.05;72.39;101950.25;689303;28;23377;-67
2021/11/06 00:09:50;;;;;;;1020.47;952.38;;;;;;;8.06;72.52;101951.13;689591;28;22321;-67
2021/11/06 00:10:13;;;;;;;1042.93;974.00;;;;;;;8.04;72.38;101950.38;689295;28;22386;-67
2021/11/06 00:10:34;;;;;;;1072.70;999.90;;;;;;;8.04;72.54;101953.06;686606;28;62499;-67
2021/11/06 00:10:55;;;;;;;1073.88;999.90;;;;;;;8.05;72.43;101946.72;687259;28;23804;-68
2021/11/06 00:11:16;;;;;;;1060.38;990.78;;;;;;;8.03;72.51;101949.53;687955;28;22409;-68
2021/11/06 00:11:38;;;;;;;1050.18;980.92;;;;;;;8.04;72.49;101951.25;687809;28;23499;-68
2021/11/06 00:11:59;;;;;;;1050.65;981.38;;;;;;;8.04;72.46;101947.69;686564;28;69309;-67
2021/11/06 00:12:20;;;;;;;1034.40;965.78;;;;;;;8.03;72.53;101951.41;688144;28;21509;-68
2021/11/06 00:12:42;;;;;;;1030.85;962.33;;;;;;;8.02;72.18;101953.22;689201;28;22386;-68
2021/11/06 00:13:04;;;;;;;1019.33;951.20;;;;;;;8.01;72.35;101948.84;689391;28;23529;-68
2021/11/06 00:13:25;;;;;;;1010.97;943.17;;;;;;;8.01;72.59;101950.66;688305;28;46311;-67
2021/11/06 00:13:47;;;;;;;1012.85;945.08;;;;;;;8.01;72.35;101947.97;689863;28;23421;-68
2021/11/06 00:14:08;;;;;;;1025.68;957.42;;;;;;;8.01;72.59;101950.66;687124;28;69440;-68
2021/11/06 00:14:31;;;;;;;1051.20;981.92;;;;;;;8.00;72.64;101949.81;689358;28;23473;-68
2021/11/06 00:14:52;;;;;;;1043.68;974.60;;;;;;;8.01;72.42;101945.28;688290;28;45230;-67
2021/11/06 00:15:13;;;;;;;1029.07;960.58;;;;;;;7.99;72.56;101948.09;688494;28;23494;-68
2021/11/06 00:15:36;;;;;;;1022.25;953.95;;;;;;;8.00;72.47;101954.34;688975;28;22228;-67
2021/11/06 00:15:57;;;;;;;1019.78;951.58;;;;;;;7.93;72.52;101940.53;687224;28;68347;-67
2021/11/06 00:16:18;;;;;;;1017.65;949.58;;;;;;;7.97;72.54;101944.69;689142;28;23454;-67
2021/11/06 00:16:39;;;;;;;1022.70;954.40;;;;;;;7.98;72.50;101957.16;689631;28;22399;-67
2021/11/06 00:17:01;;;;;;;1008.15;940.55;;;;;;;8.00;72.60;101955.19;689665;28;21524;-67
2021/11/06 00:17:22;;;;;;;986.22;919.40;;;;;;;8.01;72.61;101956.03;688110;28;46307;-68
2021/11/06 00:17:43;;;;;;;1005.88;938.17;;;;;;;7.99;72.38;101953.47;687943;28;22415;-67
2021/11/06 00:18:06;;;;;;;1019.25;951.03;;;;;;;8.01;72.38;101950.66;688005;28;47207;-67
2021/11/06 00:18:27;;;;;;;1037.93;969.20;;;;;;;8.00;72.29;101948.97;688511;28;46280;-67
2021/11/06 00:18:48;;;;;;;1057.07;987.63;;;;;;;8.00;72.45;101948.97;689486;28;23811;-69
2021/11/06 00:19:09;;;;;;;1068.97;999.03;;;;;;;8.00;72.54;101952.50;688833;28;22402;-67
2021/11/06 00:19:31;;;;;;;1057.45;987.85;;;;;;;8.03;72.59;101954.94;689043;28;21420;-67
2021/11/06 00:19:52;;;;;;;1042.15;973.15;;;;;;;8.02;72.31;101952.38;687782;28;46353;-67
2021/11/06 00:20:14;;;;;;;1053.07;983.70;;;;;;;8.01;72.49;101953.34;688082;28;23478;-67
2021/11/06 00:20:36;;;;;;;1055.57;986.00;;;;;;;7.97;72.55;101952.75;688580;28;45091;-67
2021/11/06 00:20:57;;;;;;;1049.88;980.55;;;;;;;7.99;72.63;101952.63;688268;28;46334;-67
2021/11/06 00:21:18;;;;;;;1044.25;975.10;;;;;;;7.98;72.40;101946.41;687473;28;45232;-67
2021/11/06 00:21:39;;;;;;;1037.60;968.78;;;;;;;7.98;72.65;101949.09;689414;28;22532;-67
2021/11/06 00:22:00;;;;;;;1040.85;971.85;;;;;;;7.98;72.70;101948.22;689279;28;21416;-67
2021/11/06 00:22:22;;;;;;;1036.18;967.30;;;;;;;7.98;72.61;101951.78;689145;28;22476;-67
2021/11/06 00:22:44;;;;;;;1049.18;979.88;;;;;;;7.98;72.36;101954.47;688880;28;47162;-67
2021/11/06 00:23:05;;;;;;;1058.80;989.13;;;;;;;7.97;72.59;101950.06;689159;28;21662;-67
2021/11/06 00:23:27;;;;;;;1057.47;987.83;;;;;;;7.97;72.54;101951.91;689060;28;24663;-68
2021/11/06 00:23:48;;;;;;;1037.68;968.85;;;;;;;7.96;72.45;101944.81;688855;28;45271;-67
2021/11/06 00:24:09;;;;;;;1023.78;955.58;;;;;;;7.94;72.54;101950.31;689460;28;21589;-67
2021/11/06 00:24:30;;;;;;;1022.30;954.13;;;;;;;7.94;72.49;101951.16;687898;28;46273;-68
2021/11/06 00:24:52;;;;;;;1023.88;955.58;;;;;;;7.94;72.55;101947.63;688846;28;22386;-67
2021/11/06 00:25:14;;;;;;;1015.47;947.47;;;;;;;7.93;72.55;101949.47;685995;28;44365;-67
2021/11/06 00:25:35;;;;;;;1010.72;942.92;;;;;;;7.92;72.60;101955.84;687176;28;22469;-67
2021/11/06 00:25:56;;;;;;;1017.75;949.65;;;;;;;7.91;72.85;101951.44;686800;28;46651;-67
2021/11/06 00:26:18;;;;;;;1003.35;935.85;;;;;;;7.92;72.71;101963.91;687953;28;23637;-67
2021/11/06 00:26:39;;;;;;;1000.78;933.30;;;;;;;7.93;72.52;101948.59;686872;28;43633;-67
2021/11/06 00:27:00;;;;;;;1019.35;951.15;;;;;;;7.93;72.53;101957.56;684786;28;22385;-67
2021/11/06 00:27:21;;;;;;;1026.90;958.42;;;;;;;7.93;72.49;101957.56;685385;28;22631;-68
2021/11/06 00:27:46;;;;;;;1051.47;981.88;;;;;;;7.90;72.49;101949.75;684892;28;21496;-67
2021/11/06 00:28:07;;;;;;;1022.70;954.25;;;;;;;7.93;72.60;101954.88;682755;28;92353;-67
2021/11/06 00:28:28;;;;;;;1047.93;978.70;;;;;;;7.92;72.83;101960.38;684649;28;46364;-67
2021/11/06 00:28:51;;;;;;;1063.00;993.10;;;;;;;7.91;72.62;101962.19;685043;28;21536;-67
2021/11/06 00:29:12;;;;;;;1061.15;991.38;;;;;;;7.90;72.63;101955.13;683898;28;70243;-67
2021/11/06 00:29:34;;;;;;;1045.43;976.28;;;;;;;7.89;72.78;101958.78;685685;28;22418;-68
2021/11/06 00:29:55;;;;;;;1035.95;967.15;;;;;;;7.90;72.63;101951.59;684805;28;44394;-67
2021/11/06 00:30:18;;;;;;;1039.47;970.53;;;;;;;7.93;72.69;101968.31;684653;28;22396;-67
2021/11/06 00:30:39;;;;;;;1049.85;980.40;;;;;;;7.95;72.83;101952.03;684747;28;46384;-67
2021/11/06 00:31:00;;;;;;;1058.72;989.00;;;;;;;7.96;72.69;101953.72;685717;28;45243;-67
2021/11/06 00:31:21;;;;;;;1061.43;991.53;;;;;;;7.96;72.83;101951.03;688858;28;22833;-67
2021/11/06 00:31:43;;;;;;;1076.18;999.90;;;;;;;7.96;72.65;101952.88;688939;28;22390;-67
2021/11/06 00:32:05;;;;;;;1073.75;999.90;;;;;;;7.96;72.87;101951.03;688542;28;44393;-67
2021/11/06 00:32:26;;;;;;;1059.88;990.10;;;;;;;7.96;72.75;101956.41;688277;28;45251;-67
2021/11/06 00:32:48;;;;;;;1051.85;982.42;;;;;;;7.94;72.69;101953.84;689371;28;23462;-67
2021/11/06 00:33:10;;;;;;;1039.88;971.05;;;;;;;7.95;72.60;101952.03;689052;28;22388;-67
2021/11/06 00:33:31;;;;;;;1037.32;968.60;;;;;;;7.92;72.62;101950.44;688230;28;47093;-67
2021/11/06 00:33:52;;;;;;;1037.40;968.70;;;;;;;7.97;72.49;101959.97;688703;28;46265;-67
2021/11/06 00:34:13;;;;;;;1046.82;977.75;;;;;;;7.97;72.56;101949.22;689156;28;23409;-67
2021/11/06 00:34:35;;;;;;;1038.45;969.63;;;;;;;7.99;72.50;101958.00;688953;28;22364;-68
2021/11/06 00:34:56;;;;;;;1014.20;946.40;;;;;;;7.98;72.72;101953.59;688874;28;45007;-67
2021/11/06 00:35:17;;;;;;;1014.72;946.83;;;;;;;7.98;72.52;101953.59;688968;28;4307;-67
2021/11/06 00:35:38;;;;;;;1031.03;962.47;;;;;;;7.99;72.49;101952.63;689251;28;22391;-69
2021/11/06 00:36:00;;;;;;;1056.53;987.00;;;;;;;8.00;72.40;101959.72;689337;28;22404;-67
2021/11/06 00:36:24;;;;;;;1073.05;999.90;;;;;;;7.99;72.45;101950.78;688352;28;44378;-67
2021/11/06 00:36:45;;;;;;;1063.95;994.13;;;;;;;8.01;72.48;101956.91;686553;28;90322;-67
2021/11/06 00:37:06;;;;;;;1059.68;989.97;;;;;;;8.00;72.64;101954.34;689161;28;21449;-67
2021/11/06 00:37:28;;;;;;;1059.60;989.90;;;;;;;7.97;72.48;101950.06;687870;28;23532;-67
2021/11/06 00:37:49;;;;;;;1062.93;992.90;;;;;;;7.97;72.33;101954.59;688009;28;46278;-67
2021/11/06 00:38:10;;;;;;;1059.43;989.63;;;;;;;7.94;72.46;101956.56;688513;28;21080;-67
2021/11/06 00:38:31;;;;;;;1052.88;983.40;;;;;;;7.94;72.56;101964.63;688600;28;23361;-67
2021/11/06 00:38:53;;;;;;;1041.55;972.65;;;;;;;7.92;72.62;101958.53;688954;28;23491;-67
2021/11/06 00:39:15;;;;;;;1033.05;964.35;;;;;;;7.93;72.63;101962.06;687456;28;69416;-67
2021/11/06 00:39:36;;;;;;;1030.22;961.70;;;;;;;7.92;72.71;101968.44;689215;28;23477;-67
2021/11/06 00:39:57;;;;;;;1030.93;962.42;;;;;;;7.91;72.79;101959.50;689350;28;21547;-67
2021/11/06 00:40:19;;;;;;;1029.80;961.25;;;;;;;7.92;72.86;101963.06;688701;28;23336;-67
2021/11/06 00:40:40;;;;;;;1022.50;954.20;;;;;;;7.90;72.66;101960.50;686915;28;46842;-67
2021/11/06 00:41:01;;;;;;;1019.90;951.78;;;;;;;7.91;72.73;101964.03;687309;28;22250;-67
2021/11/06 00:41:22;;;;;;;1014.47;946.58;;;;;;;7.91;72.83;101962.19;688109;28;21528;-67
2021/11/06 00:41:43;;;;;;;1015.80;947.70;;;;;;;7.92;72.71;101957.69;686886;28;22391;-67
2021/11/06 00:42:06;;;;;;;1017.08;949.08;;;;;;;7.92;72.95;101966.59;685664;28;21092;-67
2021/11/06 00:42:27;;;;;;;1021.20;952.92;;;;;;;7.90;72.71;101962.34;683848;28;69269;-68
2021/11/06 00:42:48;;;;;;;1018.47;950.38;;;;;;;7.91;72.93;101964.88;685649;28;21498;-67
2021/11/06 00:43:11;;;;;;;1013.60;945.70;;;;;;;7.92;72.86;101960.38;685223;28;44298;-67
2021/11/06 00:43:32;;;;;;;1024.93;956.60;;;;;;;7.93;72.83;101962.94;684754;28;44325;-67
2021/11/06 00:43:54;;;;;;;1042.35;973.28;;;;;;;7.94;72.83;101961.94;685406;28;22365;-67
2021/11/06 00:44:15;;;;;;;1045.60;976.50;;;;;;;7.96;72.69;101966.34;684382;28;46318;-67
2021/11/06 00:44:37;;;;;;;1050.68;981.33;;;;;;;7.96;72.50;101960.97;688591;28;1672;-67
2021/11/06 00:44:58;;;;;;;1049.28;979.97;;;;;;;7.92;72.67;101953.16;687009;28;46399;-67
2021/11/06 00:45:19;;;;;;;1051.00;981.60;;;;;;;7.92;72.79;101966.59;688311;28;21373;-67
2021/11/06 00:45:42;;;;;;;1050.10;980.72;;;;;;;7.92;72.97;101957.69;687137;28;46281;-67
2021/11/06 00:46:03;;;;;;;1049.47;980.17;;;;;;;7.92;72.86;101966.59;687271;28;46297;-67
2021/11/06 00:46:24;;;;;;;1056.03;986.42;;;;;;;7.93;72.99;101956.69;687966;28;23441;-67
2021/11/06 00:46:45;;;;;;;1056.65;987.00;;;;;;;7.91;72.61;101959.50;686621;28;1902;-67
2021/11/06 00:47:07;;;;;;;1055.35;985.75;;;;;;;7.90;72.63;101963.19;686027;28;24489;-67
2021/11/06 00:47:29;;;;;;;1056.85;987.15;;;;;;;7.92;72.65;101963.91;685317;28;44383;-67
2021/11/06 00:47:50;;;;;;;1058.38;988.50;;;;;;;7.90;72.67;101960.50;684120;28;47158;-67
2021/11/06 00:48:11;;;;;;;1051.20;981.80;;;;;;;7.90;72.89;101962.34;686203;28;23254;-67
2021/11/06 00:48:33;;;;;;;1056.45;986.78;;;;;;;7.90;72.78;101960.50;685803;28;23375;-67
2021/11/06 00:48:54;;;;;;;1051.88;982.47;;;;;;;7.90;72.68;101962.34;685114;28;44399;-67
2021/11/06 00:49:15;;;;;;;1049.47;980.17;;;;;;;7.90;72.89;101959.66;686213;28;22222;-67
2021/11/06 00:49:36;;;;;;;1044.25;975.25;;;;;;;7.89;72.70;101961.47;685888;28;23520;-67
2021/11/06 00:49:57;;;;;;;1045.15;976.15;;;;;;;7.88;72.88;101967.84;685873;28;22395;-67
2021/11/06 00:50:19;;;;;;;1048.97;979.70;;;;;;;7.86;73.08;101960.88;688532;28;44243;-68
2021/11/06 00:50:41;;;;;;;1045.97;976.90;;;;;;;7.86;73.02;101966.28;688646;28;46200;-67
2021/11/06 00:51:02;;;;;;;1031.18;962.70;;;;;;;7.87;72.96;101960.75;688834;28;22399;-68
2021/11/06 00:51:24;;;;;;;1007.92;940.30;;;;;;;7.86;72.87;101961.72;689302;28;22315;-67
2021/11/06 00:51:45;;;;;;;1015.38;947.42;;;;;;;7.87;72.95;101968.81;688474;28;44366;-67
2021/11/06 00:52:07;;;;;;;1021.85;953.58;;;;;;;7.87;72.91;101962.59;689117;28;22443;-67
2021/11/06 00:52:29;;;;;;;1024.50;956.20;;;;;;;7.88;73.00;101967.84;687579;28;69199;-67
2021/11/06 00:52:50;;;;;;;1041.22;972.33;;;;;;;7.88;73.08;101964.28;689419;28;22490;-68
2021/11/06 00:53:12;;;;;;;1042.47;973.45;;;;;;;7.89;73.12;101961.47;688603;28;23471;-67
2021/11/06 00:53:33;;;;;;;1037.88;968.97;;;;;;;7.90;72.96;101970.41;687971;28;69720;-68
2021/11/06 00:53:54;;;;;;;1046.47;977.33;;;;;;;7.89;72.81;101960.63;690238;28;23405;-68
2021/11/06 00:54:16;;;;;;;1048.45;979.15;;;;;;;7.89;72.77;101960.63;689402;28;21188;-67
2021/11/06 00:54:38;;;;;;;1052.95;983.45;;;;;;;7.88;73.10;101962.47;688615;28;46238;-67
2021/11/06 00:54:59;;;;;;;1050.13;980.72;;;;;;;7.87;72.86;101958.06;688552;28;44369;-67
2021/11/06 00:55:21;;;;;;;1049.57;980.17;;;;;;;7.89;73.10;101969.53;689653;28;19392;-67
2021/11/06 00:55:42;;;;;;;1052.00;982.40;;;;;;;7.88;72.82;101962.47;689181;28;44995;-67
2021/11/06 00:56:04;;;;;;;1050.72;981.33;;;;;;;7.87;73.20;101965.28;689282;28;23471;-67
2021/11/06 00:56:26;;;;;;;1050.57;981.15;;;;;;;7.89;73.05;101968.69;688915;28;47145;-67
2021/11/06 00:56:48;;;;;;;1050.43;980.97;;;;;;;7.92;72.83;101958.53;688749;28;45288;-67
2021/11/06 00:57:09;;;;;;;1049.93;980.53;;;;;;;7.94;72.69;101971.84;688903;28;2885;-67
2021/11/06 00:57:31;;;;;;;1045.32;976.13;;;;;;;7.91;72.86;101956.81;685277;28;25412;-67
2021/11/06 00:57:54;;;;;;;1048.80;979.33;;;;;;;7.95;72.82;101968.19;680456;29;1584;-68
2021/11/06 00:58:15;;;;;;;1043.28;973.88;;;;;;;7.93;72.96;101964.75;679873;29;1484;-67
2021/11/06 00:58:36;;;;;;;1047.28;977.97;;;;;;;7.93;72.81;101965.63;680261;29;22192;-67
2021/11/06 00:58:59;;;;;;;1045.78;976.58;;;;;;;7.92;73.10;101963.91;681312;28;24335;-68
2021/11/06 00:59:20;;;;;;;1045.80;976.60;;;;;;;7.88;72.76;101965.16;683805;28;45255;-67
2021/11/06 00:59:42;;;;;;;1029.95;961.30;;;;;;;7.89;72.82;101961.47;687747;28;21543;-67
2021/11/06 01:00:05;;;;;;;987.38;920.38;;;;;;;7.90;72.86;101967.72;689763;28;47629;-67
2021/11/06 01:00:26;;;;;;;1013.45;945.45;;;;;;;7.90;72.93;101973.94;689608;28;70360;-67
2021/11/06 01:00:47;;;;;;;1019.10;950.90;;;;;;;7.91;72.92;101964.88;691950;28;21485;-67
2021/11/06 01:01:09;;;;;;;1022.03;953.72;;;;;;;7.93;72.92;101975.50;689900;28;44993;-67
2021/11/06 01:01:30;;;;;;;1026.18;957.67;;;;;;;7.92;73.01;101971.13;688304;28;44209;-67
2021/11/06 01:01:52;;;;;;;1036.70;967.75;;;;;;;7.91;73.19;101964.88;689936;28;22667;-68
2021/11/06 01:02:13;;;;;;;1049.55;980.15;;;;;;;7.92;73.03;101969.28;689578;28;22814;-67
2021/11/06 01:02:35;;;;;;;1038.25;969.25;;;;;;;7.92;73.07;101971.97;689382;28;22231;-66
2021/11/06 01:02:56;;;;;;;1021.03;952.78;;;;;;;7.91;72.93;101967.56;688465;28;46320;-66
2021/11/06 01:03:17;;;;;;;1040.90;971.90;;;;;;;7.92;73.23;101971.97;687164;28;46324;-67
2021/11/06 01:03:38;;;;;;;1050.53;981.13;;;;;;;7.91;72.88;101975.63;689248;28;21538;-66
2021/11/06 01:04:01;;;;;;;1055.80;986.17;;;;;;;7.92;73.20;101974.66;689568;28;23333;-66
2021/11/06 01:04:22;;;;;;;1078.45;999.90;;;;;;;7.94;72.88;101966.47;688020;28;69377;-66
2021/11/06 01:04:43;;;;;;;1078.85;999.90;;;;;;;7.94;72.99;101971.84;689665;28;22440;-66
2021/11/06 01:05:06;;;;;;;1073.13;999.90;;;;;;;7.96;73.04;101969.88;688902;28;23417;-66
2021/11/06 01:05:28;;;;;;;1055.90;986.33;;;;;;;7.95;72.80;101965.50;688486;28;45246;-65
2021/11/06 01:05:49;;;;;;;1046.15;976.88;;;;;;;7.93;72.96;101965.63;689271;28;45202;-65
2021/11/06 01:06:10;;;;;;;1039.43;970.53;;;;;;;7.93;73.05;101968.31;688613;28;46353;-65
2021/11/06 01:06:31;;;;;;;1032.68;964.00;;;;;;;7.94;72.99;101969.16;689326;28;23144;-65
2021/11/06 01:06:54;;;;;;;1024.03;955.72;;;;;;;7.93;72.95;101967.44;689600;28;21670;-65
2021/11/06 01:07:16;;;;;;;1042.68;973.65;;;;;;;7.93;73.08;101964.75;688815;28;45227;-65
2021/11/06 01:07:37;;;;;;;1065.05;995.13;;;;;;;7.93;73.22;101967.44;687917;28;67465;-65
2021/11/06 01:07:59;;;;;;;1079.05;999.90;;;;;;;7.92;72.90;101971.97;690045;28;21560;-65
2021/11/06 01:08:20;;;;;;;1074.75;999.90;;;;;;;7.94;72.92;101969.16;688416;28;46433;-65
2021/11/06 01:08:43;;;;;;;1066.22;996.22;;;;;;;7.93;73.13;101973.69;689444;28;23129;-65
2021/11/06 01:09:04;;;;;;;1063.97;994.08;;;;;;;7.94;72.89;101972.69;689104;28;46382;-66
2021/11/06 01:09:26;;;;;;;1047.05;977.75;;;;;;;7.94;72.95;101971.84;688946;28;46290;-65
2021/11/06 01:09:47;;;;;;;1031.28;962.63;;;;;;;7.93;72.95;101970.13;687966;28;46317;-65
2021/11/06 01:10:11;;;;;;;1030.60;962.03;;;;;;;7.93;73.04;101980.88;689103;28;22371;-65
2021/11/06 01:10:33;;;;;;;1045.78;976.55;;;;;;;7.96;73.04;101974.41;687415;28;69312;-65
2021/11/06 01:10:54;;;;;;;1049.38;979.97;;;;;;;7.96;73.06;101974.41;688770;28;46300;-65
2021/11/06 01:11:15;;;;;;;1056.13;986.45;;;;;;;7.96;73.08;101974.41;689320;28;45267;-65
2021/11/06 01:11:37;;;;;;;1069.30;999.00;;;;;;;7.97;72.91;101976.13;689564;28;23282;-65
2021/11/06 01:11:59;;;;;;;1068.85;998.67;;;;;;;7.96;72.88;101966.34;689022;28;45165;-65
2021/11/06 01:12:20;;;;;;;1052.10;982.67;;;;;;;7.97;72.93;101976.97;688587;28;45206;-65
2021/11/06 01:12:42;;;;;;;1042.80;973.70;;;;;;;7.99;72.87;101968.78;690085;28;21899;-65
2021/11/06 01:13:04;;;;;;;1029.40;960.90;;;;;;;7.99;72.85;101971.47;688847;28;45327;-65
2021/11/06 01:13:25;;;;;;;1027.40;958.97;;;;;;;8.00;72.76;101974.03;688140;28;46448;-65
2021/11/06 01:13:46;;;;;;;1031.95;963.30;;;;;;;7.98;73.08;101980.50;690163;28;21267;-66
2021/11/06 01:14:09;;;;;;;1037.68;968.85;;;;;;;7.99;72.83;101972.31;689489;28;22404;-65
2021/11/06 01:14:31;;;;;;;1030.20;961.58;;;;;;;7.99;72.94;101983.06;687472;28;69312;-65
2021/11/06 01:14:52;;;;;;;1026.28;957.78;;;;;;;8.00;72.72;101971.31;688579;28;44525;-65
2021/11/06 01:15:14;;;;;;;1040.45;971.47;;;;;;;7.99;73.10;101975.00;689618;28;24356;-66
2021/11/06 01:15:36;;;;;;;1057.22;987.53;;;;;;;7.99;72.82;101977.69;688652;28;45252;-65
2021/11/06 01:15:57;;;;;;;1060.50;990.70;;;;;;;8.00;72.87;101976.72;686865;28;46605;-66
2021/11/06 01:16:18;;;;;;;1066.93;996.83;;;;;;;8.01;72.82;101980.25;688204;28;22901;-65
2021/11/06 01:16:40;;;;;;;1057.28;987.47;;;;;;;8.01;72.77;101973.03;688148;28;22382;-65
2021/11/06 01:17:02;;;;;;;1061.20;991.30;;;;;;;8.03;72.83;101981.00;688426;28;22389;-65
2021/11/06 01:17:23;;;;;;;1063.50;993.47;;;;;;;8.03;72.91;101973.75;687424;28;45296;-66
2021/11/06 01:17:45;;;;;;;1061.60;991.50;;;;;;;8.03;72.63;101981.00;686867;28;46107;-65
2021/11/06 01:18:06;;;;;;;1061.07;991.08;;;;;;;8.05;72.84;101987.09;685637;28;22464;-65
2021/11/06 01:18:28;;;;;;;1055.00;985.47;;;;;;;8.03;72.76;101979.13;685186;28;44172;-65
2021/11/06 01:18:49;;;;;;;1037.10;968.25;;;;;;;8.05;72.93;101979.00;685168;28;46297;-65
2021/11/06 01:19:10;;;;;;;1030.18;961.58;;;;;;;8.03;72.52;101981.00;685964;28;22400;-66
2021/11/06 01:19:31;;;;;;;1036.53;967.65;;;;;;;8.04;72.51;101977.28;686115;28;23704;-65
2021/11/06 01:19:53;;;;;;;1047.03;977.67;;;;;;;8.04;72.54;101978.16;685812;28;23346;-65
2021/11/06 01:20:15;;;;;;;1046.22;977.00;;;;;;;8.06;72.73;101978.03;688036;28;44386;-65
2021/11/06 01:20:36;;;;;;;1049.82;980.47;;;;;;;8.05;72.34;101979.00;689075;28;44181;-65
2021/11/06 01:20:58;;;;;;;1066.35;996.28;;;;;;;8.03;72.62;101983.69;689748;28;21418;-65
2021/11/06 01:21:19;;;;;;;1068.50;998.35;;;;;;;8.01;72.41;101978.44;688792;28;47479;-65
2021/11/06 01:21:41;;;;;;;1052.90;983.42;;;;;;;8.03;72.68;101975.59;689651;28;22365;-65
2021/11/06 01:22:03;;;;;;;1046.32;977.13;;;;;;;8.02;72.90;101980.13;688773;28;46363;-65
2021/11/06 01:22:25;;;;;;;1031.65;962.97;;;;;;;8.01;72.50;101974.88;688321;28;46296;-65
2021/11/06 01:22:46;;;;;;;1023.47;955.17;;;;;;;8.03;72.56;101981.00;688990;28;45293;-65
2021/11/06 01:23:08;;;;;;;1028.05;959.60;;;;;;;8.02;72.66;101972.03;689948;28;11189;-65
2021/11/06 01:23:29;;;;;;;1042.35;973.25;;;;;;;8.01;72.69;101978.44;688420;28;45315;-65
2021/11/06 01:23:51;;;;;;;1053.20;983.63;;;;;;;8.02;72.41;101976.59;690132;28;23458;-65
2021/11/06 01:24:12;;;;;;;1056.22;986.58;;;;;;;8.01;72.48;101981.13;688687;28;44006;-65
2021/11/06 01:24:33;;;;;;;1055.57;986.00;;;;;;;8.01;72.46;101977.56;689484;28;22396;-65
2021/11/06 01:24:55;;;;;;;1066.97;996.83;;;;;;;8.01;72.78;101982.94;690021;28;2028;-65
2021/11/06 01:25:16;;;;;;;1077.63;999.90;;;;;;;7.99;72.63;101983.06;688408;28;44372;-66
2021/11/06 01:25:38;;;;;;;1063.50;993.45;;;;;;;8.01;72.80;101985.63;689116;28;44357;-66
2021/11/06 01:25:59;;;;;;;1054.90;985.25;;;;;;;8.00;72.62;101976.72;689725;28;22331;-65
2021/11/06 01:26:21;;;;;;;1045.93;976.70;;;;;;;8.03;72.64;101984.53;689409;28;20924;-65
2021/11/06 01:26:43;;;;;;;1050.18;980.78;;;;;;;8.02;72.69;101985.50;688397;28;46452;-65
2021/11/06 01:27:05;;;;;;;1038.93;970.00;;;;;;;8.02;72.46;101981.97;689474;28;36987;-65
2021/11/06 01:27:26;;;;;;;1039.55;970.42;;;;;;;7.99;72.75;101980.38;689103;28;45308;-66
2021/11/06 01:27:47;;;;;;;1044.45;974.95;;;;;;;7.97;72.78;101976.97;689505;28;22413;-65
2021/11/06 01:28:10;;;;;;;1043.82;974.42;;;;;;;7.96;72.54;101991.41;687874;28;45232;-65
2021/11/06 01:28:31;;;;;;;1061.60;991.47;;;;;;;7.92;72.71;101973.81;688943;28;41868;-65
2021/11/06 01:28:52;;;;;;;1078.10;999.90;;;;;;;7.97;72.61;101986.88;690104;28;23479;-65
2021/11/06 01:29:14;;;;;;;1029.90;961.15;;;;;;;7.96;72.80;101979.78;689994;28;23435;-65
2021/11/06 01:29:36;;;;;;;1013.55;945.45;;;;;;;7.98;72.75;101980.50;688155;28;45834;-66
2021/11/06 01:29:57;;;;;;;1027.57;958.97;;;;;;;7.98;72.72;101981.38;688724;28;45215;-65
2021/11/06 01:30:18;;;;;;;1035.07;966.07;;;;;;;7.98;72.64;101980.50;688900;28;43476;-65
2021/11/06 01:30:39;;;;;;;1055.90;986.05;;;;;;;7.98;72.64;101992.13;684917;28;44684;-65
2021/11/06 01:31:01;;;;;;;1082.65;999.90;;;;;;;8.00;72.87;101981.25;685231;28;23744;-65
2021/11/06 01:31:23;;;;;;;1079.20;999.90;;;;;;;8.01;72.81;101985.63;685047;28;45309;-65
2021/11/06 01:31:44;;;;;;;1074.53;999.90;;;;;;;8.01;72.85;101982.94;685110;28;23478;-65
2021/11/06 01:32:06;;;;;;;1061.60;991.70;;;;;;;8.00;72.80;101987.47;685815;28;22391;-65
2021/11/06 01:32:28;;;;;;;1044.97;975.77;;;;;;;8.00;72.60;101987.47;683979;28;67506;-65
2021/11/06 01:32:50;;;;;;;1040.80;971.80;;;;;;;8.00;72.65;101989.31;684018;28;69513;-65
2021/11/06 01:33:11;;;;;;;1035.68;966.88;;;;;;;8.01;72.53;101991.00;686008;28;23409;-66
2021/11/06 01:33:32;;;;;;;1036.05;967.17;;;;;;;8.04;72.51;101986.25;685906;28;23820;-66
2021/11/06 01:33:54;;;;;;;1042.80;973.72;;;;;;;8.04;72.52;101997.00;685769;28;22380;-66
2021/11/06 01:34:15;;;;;;;1044.50;975.40;;;;;;;8.03;72.56;101986.38;684950;28;44454;-66
2021/11/06 01:34:36;;;;;;;1041.32;972.33;;;;;;;8.02;72.45;101985.50;686122;28;22397;-66
2021/11/06 01:34:57;;;;;;;1036.53;967.72;;;;;;;8.02;72.65;101990.88;685799;28;21196;-66
2021/11/06 01:35:19;;;;;;;1035.95;967.17;;;;;;;8.03;72.62;101997.13;688572;28;22541;-66
2021/11/06 01:35:40;;;;;;;1032.97;964.28;;;;;;;8.05;72.51;102000.53;688638;28;45415;-67
2021/11/06 01:36:02;;;;;;;1030.97;962.30;;;;;;;8.06;72.46;101986.13;688639;28;45222;-66
2021/11/06 01:36:23;;;;;;;1032.60;963.88;;;;;;;8.04;72.39;101983.56;690000;28;21560;-66
2021/11/06 01:36:45;;;;;;;1039.20;970.38;;;;;;;8.05;72.37;101989.78;688318;28;22395;-66